Time;durP1;ratioP1;P1;durP2;ratioP2;P2;SDS_P1;SDS_P2;PMS_P1;PMS_P2;Temp;Humidity;BMP_temperature;BMP_pressure;BME280_temperature;BME280_humidity;BME280_pressure;Samples;Min_cycle;Max_cycle;Signal;HPM_P1;HPM_P2
2022/11/10 00:03:06;;;;;;;71.70;61.20;;;;;;;9.37;71.52;100411.27;108557;1279;21929;-80
2022/11/10 00:06:00;;;;;;;86.70;65.70;;;;;;;9.43;71.46;100414.92;108661;1281;21928;-82
2022/11/10 00:08:53;;;;;;;75.60;66.00;;;;;;;9.44;71.31;100409.67;108726;1279;24303;-81
2022/11/10 00:11:46;;;;;;;79.70;69.50;;;;;;;9.44;71.20;100418.02;108188;1283;23034;-81
2022/11/10 00:17:48;;;;;;;79.30;69.00;;;;;;;9.44;71.44;100425.12;108548;1280;23087;-82
2022/11/10 00:20:40;;;;;;;78.60;69.00;;;;;;;9.49;71.47;100425.48;108502;1268;22311;-81
2022/11/10 00:23:33;;;;;;;79.30;70.00;;;;;;;9.52;71.46;100427.46;108492;1280;21854;-81
2022/11/10 00:26:32;;;;;;;80.50;71.60;;;;;;;9.55;71.45;100429.08;108594;1280;22010;-81
2022/11/10 00:29:24;;;;;;;81.20;71.30;;;;;;;9.55;71.24;100432.05;108583;1275;23748;-80
2022/11/10 00:32:16;;;;;;;78.30;69.70;;;;;;;9.51;70.99;100436.02;108895;1275;21925;-81
2022/11/10 00:35:14;;;;;;;81.80;72.00;;;;;;;9.47;71.13;100437.34;109009;1275;21949;-85
2022/11/10 00:38:13;;;;;;;84.10;69.80;;;;;;;9.44;71.15;100436.77;108930;1274;22377;-78
2022/11/10 00:41:03;;;;;;;80.20;71.00;;;;;;;9.44;71.32;100440.61;108927;1274;21932;-82
2022/11/10 00:43:58;;;;;;;77.40;68.80;;;;;;;9.47;71.62;100444.13;108918;1265;21945;-81
2022/11/10 00:46:51;;;;;;;79.70;70.40;;;;;;;9.51;71.62;100444.67;108591;1280;21955;-81
2022/11/10 00:49:38;;;;;;;75.00;66.50;;;;;;;9.56;71.52;100445.23;108363;1280;21974;-80
2022/11/10 00:52:31;;;;;;;75.20;64.40;;;;;;;9.59;71.49;100441.67;108551;1280;21956;-82
2022/11/10 00:55:48;;;;;;;72.00;61.60;;;;;;;9.59;71.56;100438.52;108520;1280;21950;-82
2022/11/10 00:59:13;;;;;;;70.40;62.30;;;;;;;9.58;71.62;100442.73;108571;1280;23812;-80
2022/11/10 01:02:01;;;;;;;73.90;63.40;;;;;;;9.60;71.56;100442.14;108459;1280;22872;-79
2022/11/10 01:04:49;;;;;;;74.90;64.40;;;;;;;9.64;71.50;100439.44;108642;1280;21953;-80
2022/11/10 01:07:40;;;;;;;71.10;62.60;;;;;;;9.66;71.55;100443.52;108505;1280;21935;-81
2022/11/10 01:10:29;;;;;;;68.70;60.60;;;;;;;9.68;71.59;100447.63;108622;1275;21937;-81
2022/11/10 01:13:21;;;;;;;;;;;;;;;9.69;71.58;100448.45;108558;1280;21937;-81
2022/11/10 01:16:16;;;;;;;68.10;59.30;;;;;;;9.62;71.84;100442.27;108529;1278;23042;-80
2022/11/10 01:19:03;;;;;;;68.40;59.20;;;;;;;9.62;71.90;100443.64;108640;1276;23780;-80
2022/11/10 01:21:54;;;;;;;66.00;59.00;;;;;;;9.66;71.86;100451.52;108610;1277;22036;-79
2022/11/10 01:24:44;;;;;;;66.40;59.20;;;;;;;9.68;72.02;100453.36;108664;1277;21941;-80
2022/11/10 01:27:32;;;;;;;65.20;56.70;;;;;;;9.70;71.97;100451.36;108624;1277;22880;-81
2022/11/10 01:30:21;;;;;;;69.00;61.40;;;;;;;9.72;72.02;100448.70;108711;1275;21926;-78
2022/11/10 01:33:08;;;;;;;69.40;61.50;;;;;;;9.73;72.04;100450.60;108560;1274;23045;-79
2022/11/10 01:35:57;;;;;;;69.20;61.30;;;;;;;9.73;72.11;100456.30;108583;1275;23090;-79
2022/11/10 01:38:46;;;;;;;67.50;60.00;;;;;;;9.74;72.20;100460.13;108836;1274;23007;-79
2022/11/10 01:41:34;;;;;;;67.20;57.10;;;;;;;9.73;72.30;100457.36;108813;1274;23703;-79
2022/11/10 01:44:24;;;;;;;63.10;56.20;;;;;;;9.74;72.39;100457.66;108437;1280;22418;-79
2022/11/10 01:47:13;;;;;;;61.20;54.50;;;;;;;9.76;72.55;100458.49;108426;1280;21931;-80
2022/11/10 01:50:03;;;;;;;63.80;56.90;;;;;;;9.78;72.63;100459.46;108225;1280;21948;-80
2022/11/10 01:52:58;;;;;;;64.10;55.10;;;;;;;9.77;72.71;100457.59;108544;1267;24225;-79
2022/11/10 01:55:48;;;;;;;58.40;51.90;;;;;;;9.77;72.76;100458.96;108464;1283;21938;-80
2022/11/10 01:58:43;;;;;;;58.20;51.80;;;;;;;9.79;72.89;100462.91;108374;1282;23792;-80
2022/11/10 02:01:31;;;;;;;60.20;53.80;;;;;;;9.80;72.95;100468.94;107861;1280;21936;-80
2022/11/10 02:04:21;;;;;;;62.20;53.40;;;;;;;9.83;73.10;100464.36;108110;1283;23587;-81
2022/11/10 02:07:10;;;;;;;56.10;50.10;;;;;;;9.84;73.16;100463.63;108181;1283;21987;-80
2022/11/10 02:10:00;;;;;;;50.60;44.90;;;;;;;9.86;73.33;100463.19;108115;1283;21935;-80
2022/11/10 02:12:49;;;;;;;52.50;46.00;;;;;;;9.89;73.47;100462.58;108126;1283;21973;-80
2022/11/10 02:15:38;;;;;;;51.40;45.50;;;;;;;9.91;73.45;100467.73;108129;1280;21966;-79
2022/11/10 02:18:26;;;;;;;51.20;45.60;;;;;;;9.94;73.60;100474.77;108084;1281;21954;-80
2022/11/10 02:21:20;;;;;;;50.90;45.50;;;;;;;9.96;73.62;100475.20;108562;1278;23031;-79
2022/11/10 02:24:08;;;;;;;49.90;42.90;;;;;;;9.98;73.71;100475.85;108630;1274;23730;-79
2022/11/10 02:26:56;;;;;;;51.00;44.80;;;;;;;9.99;73.81;100477.52;108723;1274;21943;-80
2022/11/10 02:29:44;;;;;;;48.10;43.00;;;;;;;10.03;73.96;100476.89;108854;1275;21978;-80
2022/11/10 02:32:32;;;;;;;46.60;41.50;;;;;;;10.07;74.00;100472.58;108885;1274;21945;-79
2022/11/10 02:35:20;;;;;;;50.60;43.00;;;;;;;10.11;73.97;100476.11;109030;1273;21934;-80
2022/11/10 02:38:08;;;;;;;46.60;41.30;;;;;;;10.12;73.94;100480.07;108919;1274;21921;-80
2022/11/10 02:40:58;;;;;;;49.60;43.00;;;;;;;10.12;73.88;100478.83;109014;1274;21945;-79
2022/11/10 02:43:45;;;;;;;43.80;38.90;;;;;;;10.14;73.95;100482.42;108814;1274;21936;-80
2022/11/10 02:46:36;;;;;;;41.30;35.90;;;;;;;10.16;74.02;100488.96;108673;1275;24452;-79
2022/11/10 02:49:24;;;;;;;38.60;34.30;;;;;;;10.18;74.14;100493.09;108904;1274;21954;-80
2022/11/10 02:52:12;;;;;;;34.90;30.90;;;;;;;10.22;74.42;100494.16;108837;1274;21944;-80
2022/11/10 02:55:00;;;;;;;33.20;28.60;;;;;;;10.28;74.58;100497.63;108868;1274;21936;-80
2022/11/10 02:57:47;;;;;;;31.10;27.90;;;;;;;10.34;74.71;100504.41;108761;1274;22620;-80
2022/11/10 03:00:37;;;;;;;29.40;25.90;;;;;;;10.39;74.76;100510.34;108927;1274;22611;-81
2022/11/10 03:03:27;;;;;;;31.10;26.90;;;;;;;10.43;74.88;100512.27;108776;1275;21990;-81
2022/11/10 03:06:15;;;;;;;28.70;25.60;;;;;;;10.47;75.04;100517.70;108553;1273;23164;-78
2022/11/10 03:09:03;;;;;;;32.90;27.90;;;;;;;10.52;75.03;100522.59;108469;1280;21935;-80
2022/11/10 03:11:51;;;;;;;31.30;26.80;;;;;;;10.57;75.17;100527.98;108492;1280;23685;-80
2022/11/10 03:14:39;;;;;;;32.50;29.00;;;;;;;10.61;75.14;100528.88;108444;1279;21935;-80
2022/11/10 03:17:27;;;;;;;32.50;29.10;;;;;;;10.62;75.00;100528.83;108452;1280;21971;-81
2022/11/10 03:20:16;;;;;;;32.00;28.60;;;;;;;10.64;75.06;100530.67;108348;1279;21943;-80
2022/11/10 03:23:04;;;;;;;33.00;29.40;;;;;;;10.67;75.13;100530.91;108518;1279;21950;-80
2022/11/10 03:25:52;;;;;;;27.70;24.80;;;;;;;10.69;75.16;100539.20;108559;1275;21944;-80
2022/11/10 03:28:40;;;;;;;30.00;26.80;;;;;;;10.71;75.28;100541.58;108959;1274;21935;-82
2022/11/10 03:31:28;;;;;;;29.40;26.20;;;;;;;10.73;75.20;100536.44;108813;1272;21945;-81
2022/11/10 03:34:17;;;;;;;25.70;22.90;;;;;;;10.75;75.27;100537.25;108830;1274;21943;-81
2022/11/10 03:37:14;;;;;;;25.00;22.30;;;;;;;10.72;75.31;100533.34;108711;1275;23723;-82
2022/11/10 03:40:03;;;;;;;25.40;22.70;;;;;;;10.70;75.30;100534.64;108817;1274;21918;-81
2022/11/10 03:42:53;;;;;;;25.50;21.40;;;;;;;10.68;75.41;100540.27;108855;1274;22969;-81
2022/11/10 03:45:44;;;;;;;26.90;22.50;;;;;;;10.70;75.71;100540.20;108828;1274;22783;-80
2022/11/10 03:48:31;;;;;;;23.70;21.20;;;;;;;10.74;75.69;100545.83;108799;1274;21953;-81
2022/11/10 03:51:19;;;;;;;24.20;21.60;;;;;;;10.76;75.83;100544.01;108848;1274;21936;-81
2022/11/10 03:54:07;;;;;;;22.70;19.30;;;;;;;10.77;75.90;100541.52;108815;1274;21934;-82
2022/11/10 03:57:00;;;;;;;22.80;18.60;;;;;;;10.81;76.03;100538.95;108845;1272;24357;-81
2022/11/10 03:59:49;;;;;;;18.30;16.40;;;;;;;10.85;76.05;100537.25;109140;1274;23638;-85
2022/11/10 04:02:38;;;;;;;18.50;16.60;;;;;;;10.86;76.05;100538.92;109189;1274;23785;-84
2022/11/10 04:18:19;;;;;;;19.60;16.00;;;;;;;10.93;76.07;100547.59;108845;1273;21947;-82
2022/11/10 04:21:09;;;;;;;23.50;19.10;;;;;;;10.88;75.94;100547.05;108816;1274;22341;-81
2022/11/10 04:23:59;;;;;;;22.10;19.70;;;;;;;10.87;76.08;100549.54;108911;1274;21933;-81
2022/11/10 04:26:51;;;;;;;20.80;18.60;;;;;;;10.86;76.04;100545.92;108736;1274;23675;-81
2022/11/10 04:29:41;;;;;;;24.50;21.00;;;;;;;10.85;76.21;100548.91;108871;1274;21985;-83
2022/11/10 04:32:35;;;;;;;22.90;19.20;;;;;;;10.86;76.21;100546.27;108638;1277;23562;-82
2022/11/10 04:35:27;;;;;;;24.20;21.80;;;;;;;10.85;76.21;100548.74;108549;1277;21961;-83
2022/11/10 04:38:17;;;;;;;23.80;21.30;;;;;;;10.87;76.31;100552.86;108658;1277;21934;-84
2022/11/10 04:41:14;;;;;;;24.40;21.80;;;;;;;10.90;76.30;100560.57;108566;1277;21961;-83
2022/11/10 04:44:03;;;;;;;23.80;21.10;;;;;;;10.92;76.32;100561.89;108633;1277;21991;-83
2022/11/10 04:46:53;;;;;;;24.80;21.80;;;;;;;10.94;76.31;100563.02;108633;1277;21900;-82
2022/11/10 04:49:41;;;;;;;22.20;20.00;;;;;;;10.97;76.31;100566.26;108663;1274;21952;-84
2022/11/10 04:52:31;;;;;;;25.00;22.50;;;;;;;10.99;76.32;100576.63;108882;1274;21964;-83
2022/11/10 04:55:20;;;;;;;30.30;25.50;;;;;;;11.01;76.28;100583.36;108830;1274;21931;-83
2022/11/10 04:58:08;;;;;;;29.00;24.70;;;;;;;11.01;76.18;100581.06;108761;1274;21930;-81
2022/11/10 05:00:58;;;;;;;28.40;25.40;;;;;;;11.00;76.17;100584.62;108749;1274;21965;-81
2022/11/10 05:03:48;;;;;;;29.20;26.10;;;;;;;11.00;76.16;100577.61;108873;1274;21942;-81
2022/11/10 05:06:35;;;;;;;27.20;24.40;;;;;;;10.99;76.09;100584.10;108908;1272;21943;-81
2022/11/10 05:09:23;;;;;;;26.30;23.60;;;;;;;10.98;76.10;100582.06;108838;1274;22590;-80
2022/11/10 05:12:12;;;;;;;27.30;22.70;;;;;;;10.98;76.18;100584.51;108826;1274;22757;-81
2022/11/10 05:15:09;;;;;;;25.60;22.90;;;;;;;10.97;76.18;100593.07;108824;1274;21990;-80
2022/11/10 05:17:57;;;;;;;24.60;21.30;;;;;;;10.98;76.26;100595.29;108630;1277;23079;-82
2022/11/10 05:20:48;;;;;;;24.50;21.90;;;;;;;10.99;76.15;100600.83;108581;1277;21952;-80
2022/11/10 05:23:39;;;;;;;24.50;21.40;;;;;;;11.00;76.24;100605.86;108323;1283;22403;-80
2022/11/10 05:26:38;;;;;;;;;;;;;;;11.00;76.22;100612.30;108172;1283;21959;-82
2022/11/10 05:29:26;;;;;;;23.10;20.60;;;;;;;10.90;76.50;100616.81;108317;1283;21948;-81
2022/11/10 05:32:13;;;;;;;22.50;20.10;;;;;;;10.91;76.49;100622.69;108302;1283;21958;-81
2022/11/10 05:35:04;;;;;;;22.30;20.00;;;;;;;10.95;76.50;100626.92;108201;1280;23167;-81
2022/11/10 05:37:56;;;;;;;20.20;18.10;;;;;;;10.98;76.47;100631.02;108545;1278;21944;-82
2022/11/10 05:40:45;;;;;;;;;;;;;;;10.99;76.45;100638.27;108684;1274;23071;-82
2022/11/10 05:43:36;;;;;;;20.70;17.90;;;;;;;10.91;76.53;100643.61;108769;1274;21932;-81
2022/11/10 05:46:30;;;;;;;22.50;20.10;;;;;;;10.93;76.60;100645.79;108893;1272;22029;-80
2022/11/10 05:49:18;;;;;;;25.50;22.20;;;;;;;10.96;76.52;100647.92;108573;1277;21961;-82
2022/11/10 05:52:10;;;;;;;19.90;17.90;;;;;;;10.99;76.46;100652.70;108598;1275;21988;-81
2022/11/10 05:55:10;;;;;;;21.90;18.40;;;;;;;11.01;76.42;100657.36;108138;1281;22039;-79
2022/11/10 05:57:58;;;;;;;20.40;18.20;;;;;;;11.01;76.40;100658.25;108297;1283;21957;-80
2022/11/10 06:00:49;;;;;;;22.70;19.20;;;;;;;11.02;76.39;100669.85;108287;1283;21939;-81
2022/11/10 06:03:37;;;;;;;21.90;19.60;;;;;;;11.06;76.38;100678.26;107917;1288;21959;-81
2022/11/10 06:06:25;;;;;;;21.60;19.10;;;;;;;11.07;76.37;100686.73;107493;1289;23058;-82
2022/11/10 06:09:14;;;;;;;23.40;20.40;;;;;;;11.10;76.41;100695.19;107431;1295;21961;-80
2022/11/10 06:12:05;;;;;;;22.00;19.70;;;;;;;11.13;76.39;100698.20;107577;1289;21949;-82
2022/11/10 06:14:57;;;;;;;23.00;19.00;;;;;;;11.15;76.34;100699.71;107777;1289;22033;-82
2022/11/10 06:17:49;;;;;;;19.00;17.00;;;;;;;11.15;76.30;100704.94;107786;1285;23125;-81
2022/11/10 06:20:37;;;;;;;22.40;20.10;;;;;;;11.16;76.24;100702.81;107682;1289;22399;-80
2022/11/10 06:23:25;;;;;;;24.10;21.00;;;;;;;11.15;76.17;100711.02;108134;1278;22704;-80
2022/11/10 06:26:13;;;;;;;22.60;20.20;;;;;;;11.15;76.11;100717.31;108671;1275;22930;-81
2022/11/10 06:29:03;;;;;;;23.20;19.60;;;;;;;11.14;76.26;100724.65;108922;1275;21922;-80
2022/11/10 06:31:51;;;;;;;22.00;18.80;;;;;;;11.16;76.21;100731.03;108502;1280;23034;-82
2022/11/10 06:34:44;;;;;;;23.20;20.70;;;;;;;11.17;76.20;100734.29;108573;1274;21943;-81
2022/11/10 06:37:32;;;;;;;26.10;21.60;;;;;;;11.19;76.15;100741.05;108703;1280;21905;-81
2022/11/10 06:40:22;;;;;;;22.40;19.60;;;;;;;11.19;76.08;100746.61;108399;1282;21942;-79
2022/11/10 06:43:11;;;;;;;24.40;19.70;;;;;;;11.20;76.02;100747.27;108423;1282;21992;-78
2022/11/10 06:46:07;;;;;;;23.10;20.00;;;;;;;11.21;76.05;100754.04;108353;1283;21936;-78
2022/11/10 06:48:58;;;;;;;22.60;20.30;;;;;;;11.22;76.07;100760.95;108413;1274;22113;-80
2022/11/10 06:51:48;;;;;;;22.30;20.00;;;;;;;11.24;76.11;100762.11;108328;1272;23176;-80
2022/11/10 06:54:42;;;;;;;22.60;20.10;;;;;;;11.24;75.98;100768.73;108617;1279;23650;-80
2022/11/10 06:57:37;;;;;;;22.10;19.80;;;;;;;11.25;76.00;100771.84;108428;1279;21961;-80
2022/11/10 07:00:28;;;;;;;35.40;23.40;;;;;;;11.26;75.99;100779.29;108502;1271;21933;-81
2022/11/10 07:03:16;;;;;;;28.00;23.30;;;;;;;11.28;76.03;100782.88;108292;1280;22061;-80
2022/11/10 07:06:07;;;;;;;21.60;19.40;;;;;;;11.31;75.96;100784.01;108104;1286;21958;-80
2022/11/10 07:08:57;;;;;;;22.20;19.40;;;;;;;11.35;75.95;100791.02;108104;1280;22021;-81
2022/11/10 07:11:45;;;;;;;21.80;19.40;;;;;;;11.39;75.91;100795.94;108387;1280;24092;-82
2022/11/10 07:14:37;;;;;;;21.90;19.60;;;;;;;11.41;75.72;100800.41;108496;1280;22712;-80
2022/11/10 07:17:27;;;;;;;26.50;21.00;;;;;;;11.41;75.67;100801.09;108644;1280;21941;-79
2022/11/10 07:20:16;;;;;;;22.60;20.30;;;;;;;11.44;75.67;100806.23;108093;1280;23788;-80
2022/11/10 07:23:13;;;;;;;22.10;19.80;;;;;;;11.46;75.59;100810.33;107637;1289;23592;-81
2022/11/10 07:26:08;;;;;;;24.10;19.50;;;;;;;11.48;75.58;100814.96;108104;1286;23722;-81
2022/11/10 07:29:14;;;;;;;21.00;17.50;;;;;;;11.48;75.47;100816.04;108061;1281;23086;-81
2022/11/10 07:32:09;;;;;;;21.70;19.50;;;;;;;11.51;75.50;100821.14;108029;1282;23048;-80
2022/11/10 07:35:05;;;;;;;20.60;18.50;;;;;;;11.54;75.43;100827.14;107729;1289;23777;-79
2022/11/10 07:38:06;;;;;;;24.80;20.90;;;;;;;11.58;75.53;100831.52;107545;1285;21964;-81
2022/11/10 07:41:14;;;;;;;21.30;18.60;;;;;;;11.60;75.30;100839.30;108235;1276;21981;-80
2022/11/10 07:44:07;;;;;;;21.10;17.40;;;;;;;11.62;75.32;100846.71;107993;1282;21941;-79
2022/11/10 07:46:58;;;;;;;20.50;17.60;;;;;;;11.65;75.20;100850.10;107629;1288;22090;-80
2022/11/10 07:49:51;;;;;;;21.30;18.60;;;;;;;11.69;75.23;100855.37;107891;1289;21994;-80
2022/11/10 07:52:54;;;;;;;18.80;16.40;;;;;;;11.72;75.07;100857.73;108107;1285;22299;-79
2022/11/10 07:56:03;;;;;;;21.20;17.10;;;;;;;11.71;74.92;100862.64;108062;1286;22142;-80
2022/11/10 07:58:53;;;;;;;21.00;17.90;;;;;;;11.70;74.71;100868.41;108210;1285;22335;-79
2022/11/10 08:01:45;;;;;;;20.40;16.80;;;;;;;11.71;74.66;100872.77;107605;1286;22941;-80
2022/11/10 08:04:34;;;;;;;23.40;17.40;;;;;;;11.71;74.68;100876.75;108346;1280;21941;-80
2022/11/10 08:07:43;;;;;;;19.90;17.50;;;;;;;11.74;74.57;100883.98;108484;1280;21928;-80
2022/11/10 08:10:43;;;;;;;21.40;18.30;;;;;;;11.74;74.54;100885.39;108410;1280;21982;-80
2022/11/10 08:13:38;;;;;;;22.70;19.70;;;;;;;11.76;74.47;100889.67;108416;1280;24147;-79
2022/11/10 08:16:31;;;;;;;23.00;18.20;;;;;;;11.78;74.41;100896.58;108253;1280;21938;-79
2022/11/10 08:19:31;;;;;;;18.50;16.50;;;;;;;11.78;74.22;100900.26;108622;1274;23045;-79
2022/11/10 08:22:23;;;;;;;24.40;18.70;;;;;;;11.78;74.17;100906.88;108811;1274;22807;-79
2022/11/10 08:25:53;;;;;;;19.80;17.00;;;;;;;11.78;74.05;100910.00;108438;1278;22410;-80
2022/11/10 08:29:44;;;;;;;24.70;21.90;;;;;;;11.74;74.11;100916.23;108496;1279;22068;-80
2022/11/10 08:32:35;;;;;;;23.90;19.30;;;;;;;11.78;74.15;100919.96;107990;1280;21952;-80
2022/11/10 08:35:33;;;;;;;20.20;17.30;;;;;;;11.87;74.46;100924.18;108094;1284;22196;-80
2022/11/10 08:38:23;;;;;;;19.70;16.90;;;;;;;12.03;74.73;100928.02;108143;1285;22412;-80
2022/11/10 08:41:14;;;;;;;25.20;17.40;;;;;;;12.21;74.60;100933.30;107793;1288;21618;-80
2022/11/10 08:44:05;;;;;;;23.20;19.20;;;;;;;12.38;74.49;100936.75;108219;1285;21971;-80
2022/11/10 08:47:01;;;;;;;22.10;18.30;;;;;;;12.52;73.95;100941.81;108104;1285;23513;-80
2022/11/10 08:49:51;;;;;;;22.80;18.10;;;;;;;12.62;73.47;100948.27;108242;1280;21985;-80
2022/11/10 08:52:42;;;;;;;15.80;14.20;;;;;;;12.71;73.22;100952.65;108442;1279;22749;-80
2022/11/10 08:55:31;;;;;;;20.10;13.70;;;;;;;12.82;72.90;100957.13;108592;1278;22365;-80
2022/11/10 08:58:23;;;;;;;15.80;13.50;;;;;;;12.93;72.68;100965.09;108019;1285;21999;-79
2022/11/10 09:01:21;;;;;;;14.60;12.60;;;;;;;13.11;72.72;100971.41;108050;1283;23096;-79
2022/11/10 09:04:14;;;;;;;13.90;12.40;;;;;;;13.25;72.15;100977.32;107979;1283;22311;-80
2022/11/10 09:07:03;;;;;;;14.60;12.70;;;;;;;13.36;71.70;100982.70;108566;1280;22495;-79
2022/11/10 09:09:51;;;;;;;13.70;11.50;;;;;;;13.46;71.37;100984.39;107916;1285;22244;-77
2022/11/10 09:12:57;;;;;;;15.00;11.40;;;;;;;13.57;71.03;100986.77;107777;1285;22000;-82
2022/11/10 09:16:04;;;;;;;11.80;9.40;;;;;;;13.65;70.40;100993.08;108150;1271;22024;-83
2022/11/10 09:18:56;;;;;;;12.50;10.10;;;;;;;13.66;69.76;100994.61;108529;1280;22033;-83
2022/11/10 09:21:59;;;;;;;12.50;9.80;;;;;;;13.66;69.25;100997.08;108527;1280;22236;-83
2022/11/10 09:24:55;;;;;;;11.20;9.70;;;;;;;13.60;68.83;101001.52;108258;1286;21841;-83
2022/11/10 09:27:50;;;;;;;12.50;9.30;;;;;;;13.59;68.80;101004.53;108336;1279;21942;-83
2022/11/10 09:30:54;;;;;;;11.90;9.90;;;;;;;13.61;68.76;101005.83;108620;1280;23687;-82
2022/11/10 09:33:58;;;;;;;11.10;8.20;;;;;;;13.62;68.47;101012.81;108616;1280;21967;-82
2022/11/10 09:36:52;;;;;;;14.20;8.60;;;;;;;13.61;68.46;101019.63;108525;1279;21959;-82
2022/11/10 09:39:40;;;;;;;12.40;9.10;;;;;;;13.63;68.29;101019.75;108706;1278;21951;-82
2022/11/10 09:42:46;;;;;;;11.10;8.30;;;;;;;13.64;68.22;101023.21;108453;1279;21950;-84
2022/11/10 09:45:41;;;;;;;9.60;7.80;;;;;;;13.66;68.00;101030.30;108408;1280;21920;-82
2022/11/10 09:48:40;;;;;;;12.70;8.50;;;;;;;13.67;68.10;101031.83;108230;1279;23622;-81
2022/11/10 09:51:50;;;;;;;12.20;7.60;;;;;;;13.70;68.03;101031.89;108710;1279;25154;-84
2022/11/10 09:54:57;;;;;;;11.40;7.60;;;;;;;13.70;67.77;101036.27;108545;1280;21935;-86
2022/11/10 09:58:01;;;;;;;14.70;8.20;;;;;;;13.71;67.67;101038.31;108540;1279;21934;-78
2022/11/10 10:01:20;;;;;;;15.90;9.80;;;;;;;13.71;67.39;101042.88;108658;1274;21935;-79
2022/11/10 10:04:40;;;;;;;11.90;7.90;;;;;;;13.72;67.32;101045.80;108853;1274;21939;-79
2022/11/10 10:07:53;;;;;;;10.30;7.60;;;;;;;13.76;67.04;101045.15;108952;1274;22025;-78
2022/11/10 10:10:50;;;;;;;9.90;6.70;;;;;;;13.80;66.83;101041.27;108270;1278;22279;-78
2022/11/10 10:14:14;;;;;;;13.70;8.40;;;;;;;13.84;66.60;101046.55;108119;1270;23693;-77
2022/11/10 10:17:46;;;;;;;10.30;7.90;;;;;;;13.84;66.41;101049.00;108501;1280;22811;-80
2022/11/10 10:21:15;;;;;;;13.60;7.60;;;;;;;13.86;66.37;101053.84;108012;1286;21964;-78
2022/11/10 10:24:21;;;;;;;27.30;20.60;;;;;;;13.82;66.19;101062.55;108141;1285;21950;-79
2022/11/10 10:27:24;;;;;;;9.10;6.70;;;;;;;13.82;66.00;101063.60;107655;1286;21988;-77
2022/11/10 10:30:21;;;;;;;10.50;7.10;;;;;;;13.80;65.89;101063.32;108216;1280;21951;-79
2022/11/10 10:33:22;;;;;;;9.10;5.80;;;;;;;13.85;65.81;101060.34;108289;1279;21950;-78
2022/11/10 10:36:30;;;;;;;13.00;7.10;;;;;;;13.88;65.71;101060.58;108227;1280;21976;-79
2022/11/10 10:39:43;;;;;;;10.80;7.20;;;;;;;13.90;65.64;101065.39;108518;1274;21931;-79
2022/11/10 10:42:35;;;;;;;16.10;6.90;;;;;;;13.98;65.61;101062.27;108781;1273;23646;-80
2022/11/10 10:45:34;;;;;;;9.10;6.40;;;;;;;13.98;65.04;101059.99;108684;1277;23113;-81
2022/11/10 10:48:34;;;;;;;14.20;7.20;;;;;;;13.98;65.03;101057.19;108265;1280;23620;-81
2022/11/10 10:51:35;;;;;;;8.40;5.70;;;;;;;13.99;64.86;101054.02;108649;1278;21941;-85
2022/11/10 10:54:38;;;;;;;9.60;6.50;;;;;;;14.01;64.79;101056.90;108521;1277;23617;-82
2022/11/10 10:57:31;;;;;;;12.00;6.90;;;;;;;14.09;64.96;101059.20;108710;1277;23607;-82
2022/11/10 11:00:21;;;;;;;14.00;7.30;;;;;;;14.19;64.71;101062.65;108587;1277;23626;-80
2022/11/10 11:03:41;;;;;;;10.00;5.90;;;;;;;14.28;64.70;101065.92;108470;1280;22326;-83
2022/11/10 11:06:34;;;;;;;21.30;8.30;;;;;;;14.42;64.53;101067.96;108572;1280;23685;-83
2022/11/10 11:09:38;;;;;;;9.80;6.70;;;;;;;14.49;63.97;101071.33;108042;1286;21942;-82
2022/11/10 11:12:31;;;;;;;9.10;5.50;;;;;;;14.49;63.56;101075.55;108237;1286;23232;-84
2022/11/10 11:15:30;;;;;;;12.70;6.50;;;;;;;14.42;62.89;101076.54;108190;1286;23771;-85
2022/11/10 11:18:29;;;;;;;12.80;6.90;;;;;;;14.26;62.56;101073.35;107972;1286;21989;-79
2022/11/10 11:21:41;;;;;;;10.40;6.70;;;;;;;14.17;62.70;101071.48;108112;1280;21952;-83
2022/11/10 11:25:16;;;;;;;10.50;6.10;;;;;;;14.10;62.84;101074.02;108592;1280;23287;-78
2022/11/10 11:28:15;;;;;;;10.70;6.80;;;;;;;14.03;62.93;101073.80;108741;1280;22729;-84
2022/11/10 11:31:26;;;;;;;12.60;7.20;;;;;;;13.99;63.23;101078.82;108415;1281;22076;-82
2022/11/10 11:34:56;;;;;;;12.40;7.10;;;;;;;13.94;63.29;101080.61;108183;1283;23047;-81
2022/11/10 11:38:14;;;;;;;13.30;7.10;;;;;;;13.87;63.52;101084.92;108404;1283;21957;-82
2022/11/10 11:41:23;;;;;;;15.80;9.30;;;;;;;13.87;63.77;101084.05;108320;1283;23785;-84
2022/11/10 11:44:43;;;;;;;11.20;7.40;;;;;;;13.86;63.72;101081.63;108502;1283;23224;-83
2022/11/10 11:48:36;;;;;;;;;;;;;;;;;;;;;
2022/11/10 11:52:34;;;;;;;21.00;10.80;;;;;;;13.81;64.28;101090.41;108627;1280;23604;-83
2022/11/10 11:55:36;;;;;;;16.20;13.30;;;;;;;13.90;64.38;101093.89;108723;1279;21953;-82
2022/11/10 11:58:44;;;;;;;16.60;11.40;;;;;;;14.02;64.41;101097.61;108527;1280;21968;-82
2022/11/10 12:02:36;;;;;;;16.10;8.80;;;;;;;14.13;64.43;101102.10;108202;1286;21946;-82
2022/11/10 12:05:35;;;;;;;13.60;8.10;;;;;;;14.25;64.36;101102.80;108324;1286;23019;-81
2022/11/10 12:08:42;;;;;;;12.70;6.50;;;;;;;14.35;64.01;101108.00;107549;1291;22117;-82
2022/11/10 12:12:00;;;;;;;12.30;6.40;;;;;;;14.41;63.57;101110.04;107500;1291;22274;-82
2022/11/10 12:15:33;;;;;;;9.70;5.80;;;;;;;14.38;62.99;101106.66;107566;1291;22038;-82
2022/11/10 12:18:33;;;;;;;9.00;5.20;;;;;;;14.33;62.88;101106.86;107664;1291;22479;-83
2022/11/10 12:22:09;;;;;;;12.20;6.50;;;;;;;14.29;62.48;101111.73;108158;1286;22975;-81
2022/11/10 12:25:04;;;;;;;17.90;9.20;;;;;;;14.19;62.17;101116.55;107484;1294;21994;-80
2022/11/10 12:28:17;;;;;;;11.60;6.70;;;;;;;14.17;62.39;101126.96;108038;1288;21997;-79
2022/11/10 12:31:17;;;;;;;9.00;5.90;;;;;;;14.17;62.49;101125.91;108115;1282;21964;-79
2022/11/10 12:34:42;;;;;;;13.50;8.30;;;;;;;14.17;62.53;101125.37;108500;1271;22067;-79
2022/11/10 12:37:51;;;;;;;7.90;5.30;;;;;;;14.15;62.46;101124.95;108318;1282;21944;-78
2022/11/10 12:40:49;;;;;;;11.20;5.70;;;;;;;14.10;62.40;101120.39;107782;1286;24243;-78
2022/11/10 12:44:16;;;;;;;12.60;6.00;;;;;;;14.14;62.35;101133.20;108233;1286;22511;-78
2022/11/10 12:47:15;;;;;;;13.20;5.70;;;;;;;14.17;62.51;101131.16;108203;1286;21960;-79
2022/11/10 12:50:14;;;;;;;10.00;5.60;;;;;;;14.24;62.52;101138.21;108062;1286;21973;-79
2022/11/10 12:53:14;;;;;;;11.60;5.90;;;;;;;14.31;62.34;101144.25;108204;1286;21983;-79
2022/11/10 12:56:22;;;;;;;8.30;4.30;;;;;;;14.36;62.14;101145.61;108083;1281;23629;-80
2022/11/10 12:59:19;;;;;;;10.80;5.30;;;;;;;14.37;61.65;101149.06;108086;1282;22865;-76
2022/11/10 13:02:43;;;;;;;12.20;5.10;;;;;;;14.37;61.52;101150.45;108378;1274;22992;-77
2022/11/10 13:05:40;;;;;;;8.20;4.20;;;;;;;14.32;61.05;101153.81;108211;1281;22417;-75
2022/11/10 13:08:45;;;;;;;13.30;4.70;;;;;;;14.23;60.84;101154.70;108184;1283;21956;-76
2022/11/10 13:11:35;;;;;;;11.20;5.10;;;;;;;14.18;60.88;101154.23;108069;1283;23738;-76
2022/11/10 13:14:28;;;;;;;19.00;10.00;;;;;;;14.15;61.05;101156.27;107990;1283;21946;-76
2022/11/10 13:17:25;;;;;;;11.80;5.80;;;;;;;14.14;61.24;101157.72;108413;1281;22374;-76
2022/11/10 13:20:38;;;;;;;10.30;4.50;;;;;;;14.13;61.32;101157.02;108038;1279;22203;-76
2022/11/10 13:23:26;;;;;;;;;;;;;;;14.09;61.25;101170.15;108158;1282;21934;-77
2022/11/10 13:26:43;;;;;;;14.40;10.40;;;;;;;13.96;61.36;101175.02;108186;1282;23343;-77
2022/11/10 13:29:52;;;;;;;9.70;5.40;;;;;;;13.88;61.44;101176.73;107710;1287;21952;-77
2022/11/10 13:32:40;;;;;;;11.80;5.30;;;;;;;13.84;61.56;101179.69;107924;1289;21976;-78
2022/11/10 13:35:28;;;;;;;9.60;4.20;;;;;;;13.80;61.64;101188.95;107641;1289;24285;-79
2022/11/10 13:38:33;;;;;;;9.30;4.30;;;;;;;13.75;61.73;101190.70;107657;1289;23716;-77